Time,TemperatureF,DewpointF,PressureIn,WindDirection,WindDirectionDegrees,WindSpeedMPH,WindSpeedGustMPH,Humidity,HourlyPrecipIn,Conditions,Clouds,dailyrainin,SoftwareType,DateUTC
2013-01-24 09:45:00,19.4,9.9,30.29,NNE,15,5.0,18.0,66,0.00,CLR,FEW,0.00,WeatherDisplay:10.37,2013-01-24 14:45:00,
2013-01-24 09:50:00,19.6,9.4,30.29,NNE,14,9.0,21.0,64,0.00,CLR,FEW,0.00,WeatherDisplay:10.37,2013-01-24 14:50:00,
2013-01-24 09:55:00,19.6,9.4,30.32,North,9,12.0,15.0,64,0.00,CLR,FEW,0.00,WeatherDisplay:10.37,2013-01-24 14:55:00,
2013-01-24 10:00:00,19.2,8.3,30.32,North,9,16.0,18.0,62,0.00,CLR,FEW,0.00,WeatherDisplay:10.37,2013-01-24 15:00:00,
2013-01-24 10:05:00,19.2,7.2,30.32,North,9,15.0,18.0,59,0.00,CLR,FEW,0.00,WeatherDisplay:10.37,2013-01-24 15:05:00,
2013-01-24 10:10:00,19.2,7.2,30.32,North,6,15.0,15.0,59,0.00,CLR,FEW,0.00,WeatherDisplay:10.37,2013-01-24 15:10:00,
2013-01-24 10:20:00,22.8,6.9,30.32,NNE,25,13.0,19.0,50,0.00,CLR,FEW,0.00,WeatherDisplay:10.37,2013-01-24 15:20:00,
2013-01-24 10:30:00,22.6,6.3,30.35,North,2,14.0,15.0,49,0.00,CLR,FEW,0.00,WeatherDisplay:10.37,2013-01-24 15:30:00,
2013-01-24 10:35:00,20.8,4.7,30.35,NNE,16,14.0,16.0,49,0.00,CLR,FEW,0.00,WeatherDisplay:10.37,2013-01-24 15:35:00,
2013-01-24 10:40:00,19.8,3.7,30.35,NNE,25,15.0,16.0,49,0.00,CLR,FEW,0.00,WeatherDisplay:10.37,2013-01-24 15:40:00,
2013-01-24 10:45:00,20.5,4.3,30.35,NNE,24,15.0,18.0,49,0.00,CLR,FEW,0.00,WeatherDisplay:10.37,2013-01-24 15:45:00,
2013-01-24 10:50:00,20.7,4.5,30.35,NNE,19,16.0,18.0,49,0.00,CLR,FEW,0.00,WeatherDisplay:10.37,2013-01-24 15:50:00,
2013-01-24 11:00:00,23.9,7.5,30.35,North,7,16.0,17.0,49,0.00,CLR,FEW,0.00,WeatherDisplay:10.37,2013-01-24 16:00:00,
2013-01-24 11:05:00,22.1,5.8,30.38,North,7,16.0,20.0,49,0.00,CLR,FEW,0.00,WeatherDisplay:10.37,2013-01-24 16:05:00,
2013-01-24 11:10:00,22.1,5.8,30.38,North,10,16.0,20.0,49,0.00,CLR,FEW,0.00,WeatherDisplay:10.37,2013-01-24 16:10:00,
2013-01-24 11:15:00,21.9,5.7,30.38,North,11,17.0,22.0,49,0.00,CLR,FEW,0.00,WeatherDisplay:10.37,2013-01-24 16:15:00,
2013-01-24 11:20:00,21.0,4.8,30.38,North,9,16.0,16.0,49,0.00,CLR,FEW,0.00,WeatherDisplay:10.37,2013-01-24 16:20:00,
2013-01-24 11:25:00,21.0,4.8,30.38,NNE,12,16.0,16.0,49,0.00,CLR,FEW,0.00,WeatherDisplay:10.37,2013-01-24 16:25:00,
2013-01-24 11:30:00,22.1,5.8,30.38,NNE,17,15.0,17.0,49,0.00,CLR,FEW,0.00,WeatherDisplay:10.37,2013-01-24 16:30:00,
2013-01-24 11:35:00,21.9,5.7,30.38,NNE,16,15.0,20.0,49,0.00,CLR,FEW,0.00,WeatherDisplay:10.37,2013-01-24 16:35:00,
2013-01-24 11:40:00,21.9,5.7,30.38,NNE,19,16.0,20.0,49,0.00,CLR,FEW,0.00,WeatherDisplay:10.37,2013-01-24 16:40:00,
2013-01-24 11:45:00,21.0,4.8,30.38,NNE,18,16.0,18.0,49,0.00,CLR,FEW,0.00,WeatherDisplay:10.37,2013-01-24 16:45:00,
2013-01-24 11:50:00,20.7,4.5,30.41,NNE,29,17.0,18.0,49,0.00,CLR,FEW,0.00,WeatherDisplay:10.37,2013-01-24 16:50:00,
2013-01-24 12:00:00,20.8,4.7,30.41,NNE,18,15.0,15.0,49,0.00,CLR,FEW,0.00,WeatherDisplay:10.37,2013-01-24 17:00:00,
2013-01-24 12:05:00,20.7,4.5,30.41,NNE,24,14.0,17.0,49,0.00,CLR,FEW,0.00,WeatherDisplay:10.37,2013-01-24 17:05:00,
2013-01-24 12:10:00,20.1,4.0,30.41,NNE,21,14.0,17.0,49,0.00,CLR,FEW,0.00,WeatherDisplay:10.37,2013-01-24 17:10:00,
2013-01-24 12:20:00,21.2,5.0,30.41,North,5,14.0,17.0,49,0.00,CLR,FEW,0.00,WeatherDisplay:10.37,2013-01-24 17:20:00,
2013-01-24 12:25:00,21.2,5.0,30.41,North,2,14.0,17.0,49,0.00,CLR,FEW,0.00,WeatherDisplay:10.37,2013-01-24 17:25:00,
2013-01-24 12:30:00,21.9,5.7,30.41,North,2,14.0,14.0,49,0.00,CLR,FEW,0.00,WeatherDisplay:10.37,2013-01-24 17:30:00,
2013-01-24 12:35:00,19.9,3.8,30.41,North,7,14.0,16.0,49,0.00,CLR,FEW,0.00,WeatherDisplay:10.37,2013-01-24 17:35:00,
2013-01-24 12:40:00,21.2,5.0,30.41,North,10,13.0,13.0,49,0.00,CLR,FEW,0.00,WeatherDisplay:10.37,2013-01-24 17:40:00,
2013-01-24 12:45:00,21.4,5.2,30.41,North,355,13.0,16.0,49,0.00,CLR,FEW,0.00,WeatherDisplay:10.37,2013-01-24 17:45:00,
2013-01-24 12:50:00,20.8,4.7,30.38,North,1,13.0,16.0,49,0.00,CLR,FEW,0.00,WeatherDisplay:10.37,2013-01-24 17:50:00,
2013-01-24 13:00:00,21.0,4.8,30.38,North,3,13.0,14.0,49,0.00,CLR,FEW,0.00,WeatherDisplay:10.37,2013-01-24 18:00:00,
2013-01-24 13:05:00,19.9,3.8,30.41,North,5,13.0,16.0,49,0.00,CLR,FEW,0.00,WeatherDisplay:10.37,2013-01-24 18:05:00,
2013-01-24 13:10:00,19.6,3.5,30.41,North,4,13.0,16.0,49,0.00,CLR,FEW,0.00,WeatherDisplay:10.37,2013-01-24 18:10:00,
2013-01-24 13:15:00,19.6,3.5,30.41,North,5,13.0,16.0,49,0.00,CLR,FEW,0.00,WeatherDisplay:10.37,2013-01-24 18:15:00,
2013-01-24 13:25:00,21.2,5.0,30.41,North,359,14.0,15.0,49,0.00,CLR,FEW,0.00,WeatherDisplay:10.37,2013-01-24 18:25:00,
2013-01-24 13:35:00,20.7,4.5,30.41,North,5,12.0,20.0,49,0.00,CLR,FEW,0.00,WeatherDisplay:10.37,2013-01-24 18:35:00,
2013-01-24 13:40:00,19.8,3.7,30.41,North,7,13.0,20.0,49,0.00,CLR,FEW,0.00,WeatherDisplay:10.37,2013-01-24 18:40:00,
2013-01-24 13:45:00,19.8,3.7,30.38,North,353,13.0,14.0,49,0.00,CLR,FEW,0.00,WeatherDisplay:10.37,2013-01-24 18:45:00,
2013-01-24 13:50:00,21.4,5.2,30.38,NNW,340,12.0,12.0,49,0.00,CLR,FEW,0.00,WeatherDisplay:10.37,2013-01-24 18:50:00,
2013-01-24 13:55:00,22.3,6.0,30.41,NNW,340,12.0,12.0,49,0.00,CLR,FEW,0.00,WeatherDisplay:10.37,2013-01-24 18:55:00,
2013-01-24 14:00:00,21.4,5.2,30.41,NNW,342,10.0,13.0,49,0.00,CLR,FEW,0.00,WeatherDisplay:10.37,2013-01-24 19:00:00,
2013-01-24 14:05:00,24.4,8.0,30.41,North,4,9.0,10.0,49,0.00,CLR,FEW,0.00,WeatherDisplay:10.37,2013-01-24 19:05:00,
2013-01-24 14:10:00,22.3,6.0,30.41,North,358,9.0,10.0,49,0.00,CLR,FEW,0.00,WeatherDisplay:10.37,2013-01-24 19:10:00,
2013-01-24 14:15:00,21.6,5.3,30.41,NNW,347,9.0,11.0,49,0.00,CLR,FEW,0.00,WeatherDisplay:10.37,2013-01-24 19:15:00,
2013-01-24 14:20:00,21.4,5.2,30.41,NNW,346,9.0,12.0,49,0.00,CLR,FEW,0.00,WeatherDisplay:10.37,2013-01-24 19:20:00,
2013-01-24 14:25:00,21.0,4.8,30.41,NNW,341,9.0,12.0,49,0.00,CLR,FEW,0.00,WeatherDisplay:10.37,2013-01-24 19:25:00,
2013-01-24 14:30:00,21.0,4.8,30.41,North,355,9.0,10.0,49,0.00,CLR,FEW,0.00,WeatherDisplay:10.37,2013-01-24 19:30:00,
2013-01-24 14:35:00,21.0,4.8,30.41,NNW,346,9.0,10.0,49,0.00,CLR,FEW,0.00,WeatherDisplay:10.37,2013-01-24 19:35:00,
2013-01-24 14:40:00,19.4,3.3,30.41,NNW,337,8.0,8.0,49,0.00,CLR,FEW,0.00,WeatherDisplay:10.37,2013-01-24 19:40:00,
2013-01-24 14:45:00,19.4,3.3,30.41,North,357,8.0,9.0,49,0.00,CLR,FEW,0.00,WeatherDisplay:10.37,2013-01-24 19:45:00,
2013-01-24 14:50:00,19.9,5.9,30.41,North,11,8.0,11.0,54,0.00,CLR,FEW,0.00,WeatherDisplay:10.37,2013-01-24 19:50:00,
2013-01-24 14:55:00,19.6,4.8,30.41,NNE,15,9.0,15.0,52,0.00,CLR,FEW,0.00,WeatherDisplay:10.37,2013-01-24 19:55:00,
2013-01-24 15:00:00,19.6,6.0,30.41,North,8,10.0,15.0,55,0.00,CLR,FEW,0.00,WeatherDisplay:10.37,2013-01-24 20:00:00,
2013-01-24 15:05:00,21.2,8.3,30.41,North,349,9.0,12.0,57,0.00,CLR,FEW,0.00,WeatherDisplay:10.37,2013-01-24 20:05:00,
2013-01-24 15:10:00,21.6,8.3,30.41,NNW,348,9.0,12.0,56,0.00,CLR,FEW,0.00,WeatherDisplay:10.37,2013-01-24 20:10:00,
2013-01-24 15:15:00,20.3,5.5,30.41,North,9,9.0,12.0,52,0.00,CLR,FEW,0.00,WeatherDisplay:10.37,2013-01-24 20:15:00,
2013-01-24 15:20:00,20.5,7.3,30.41,NNW,347,8.0,12.0,56,0.00,CLR,FEW,0.00,WeatherDisplay:10.37,2013-01-24 20:20:00,
2013-01-24 15:25:00,20.3,4.2,30.41,NNW,336,9.0,10.0,49,0.00,CLR,FEW,0.00,WeatherDisplay:10.37,2013-01-24 20:25:00,
2013-01-24 15:30:00,20.8,4.7,30.41,NNW,340,9.0,10.0,49,0.00,CLR,FEW,0.00,WeatherDisplay:10.37,2013-01-24 20:30:00,
2013-01-24 15:35:00,21.0,4.8,30.41,NW,321,7.0,7.0,49,0.00,CLR,FEW,0.00,WeatherDisplay:10.37,2013-01-24 20:35:00,
2013-01-24 15:40:00,21.0,4.8,30.41,NW,322,6.0,12.0,49,0.00,CLR,FEW,0.00,WeatherDisplay:10.37,2013-01-24 20:40:00,
2013-01-24 15:50:00,20.3,4.2,30.41,NW,310,8.0,12.0,49,0.00,CLR,FEW,0.00,WeatherDisplay:10.37,2013-01-24 20:50:00,
2013-01-24 16:00:00,19.8,3.7,30.44,NW,324,8.0,8.0,49,0.00,CLR,FEW,0.00,WeatherDisplay:10.37,2013-01-24 21:00:00,
2013-01-24 16:05:00,19.8,3.7,30.44,NNW,337,7.0,8.0,49,0.00,CLR,FEW,0.00,WeatherDisplay:10.37,2013-01-24 21:05:00,
2013-01-24 16:10:00,18.7,2.7,30.44,North,352,7.0,15.0,49,0.00,CLR,FEW,0.00,WeatherDisplay:10.37,2013-01-24 21:10:00,
2013-01-24 16:20:00,18.5,2.5,30.41,North,356,9.0,9.0,49,0.00,CLR,FEW,0.00,WeatherDisplay:10.37,2013-01-24 21:20:00,
2013-01-24 16:30:00,18.0,2.4,30.41,North,350,8.0,9.0,50,0.00,CLR,FEW,0.00,WeatherDisplay:10.37,2013-01-24 21:30:00,
2013-01-24 16:40:00,17.8,2.3,30.44,North,349,7.0,8.0,50,0.00,CLR,FEW,0.00,WeatherDisplay:10.37,2013-01-24 21:40:00,
2013-01-24 16:45:00,17.6,2.1,30.44,North,356,7.0,8.0,50,0.00,CLR,FEW,0.00,WeatherDisplay:10.37,2013-01-24 21:45:00,
2013-01-24 16:50:00,17.4,2.8,30.44,NNW,346,7.0,7.0,52,0.00,CLR,FEW,0.00,WeatherDisplay:10.37,2013-01-24 21:50:00,
2013-01-24 16:55:00,17.2,1.8,30.44,NNW,342,7.0,8.0,50,0.00,CLR,FEW,0.00,WeatherDisplay:10.37,2013-01-24 21:55:00,
2013-01-24 17:00:00,16.9,2.3,30.44,North,349,7.0,8.0,52,0.00,CLR,FEW,0.00,WeatherDisplay:10.37,2013-01-24 22:00:00,
2013-01-24 17:05:00,16.7,2.9,30.44,North,352,7.0,9.0,54,0.00,CLR,FEW,0.00,WeatherDisplay:10.37,2013-01-24 22:05:00,
2013-01-24 17:10:00,16.9,3.5,30.44,North,357,7.0,7.0,55,0.00,CLR,FEW,0.00,WeatherDisplay:10.37,2013-01-24 22:10:00,
2013-01-24 17:20:00,16.5,3.5,30.44,NNW,340,5.0,8.0,56,0.00,CLR,FEW,0.00,WeatherDisplay:10.37,2013-01-24 22:20:00,
2013-01-24 17:30:00,16.3,4.1,30.44,NNW,340,3.0,4.0,58,0.00,CLR,FEW,0.00,WeatherDisplay:10.37,2013-01-24 22:30:00,
2013-01-24 17:40:00,16.3,4.1,30.44,NNW,345,3.0,0.0,58,0.00,CLR,FEW,0.00,WeatherDisplay:10.37,2013-01-24 22:40:00,
2013-01-24 17:50:00,15.1,3.3,30.44,NNW,340,0.0,0.0,59,0.00,CLR,FEW,0.00,WeatherDisplay:10.37,2013-01-24 22:50:00,
2013-01-24 18:00:00,14.5,2.8,30.44,NNW,340,0.0,0.0,59,0.00,CLR,FEW,0.00,WeatherDisplay:10.37,2013-01-24 23:00:00,
2013-01-24 18:05:00,14.4,3.0,30.44,NNW,340,0.0,0.0,60,0.00,CLR,FEW,0.00,WeatherDisplay:10.37,2013-01-24 23:05:00,
2013-01-24 18:10:00,14.4,3.0,30.44,NNW,340,0.0,0.0,60,0.00,CLR,FEW,0.00,WeatherDisplay:10.37,2013-01-24 23:10:00,
2013-01-24 18:15:00,14.0,3.0,30.44,NNW,340,0.0,0.0,61,0.00,CLR,FEW,0.00,WeatherDisplay:10.37,2013-01-24 23:15:00,
2013-01-24 18:20:00,13.5,2.5,30.44,NNW,340,0.0,0.0,61,0.00,CLR,FEW,0.00,WeatherDisplay:10.37,2013-01-24 23:20:00,
2013-01-24 18:25:00,13.5,2.5,30.44,NNW,340,0.0,0.0,61,0.00,CLR,FEW,0.00,WeatherDisplay:10.37,2013-01-24 23:25:00,
2013-01-24 18:30:00,13.1,2.2,30.44,NNW,340,0.0,0.0,61,0.00,CLR,FEW,0.00,WeatherDisplay:10.37,2013-01-24 23:30:00,
2013-01-24 18:40:00,12.9,2.3,30.44,NNW,340,0.0,0.0,62,0.00,CLR,FEW,0.00,WeatherDisplay:10.37,2013-01-24 23:40:00,
2013-01-24 18:50:00,12.2,2.0,30.44,NNW,340,0.0,0.0,63,0.00,CLR,FEW,0.00,WeatherDisplay:10.37,2013-01-24 23:50:00,
2013-01-24 18:55:00,12.2,2.3,30.44,NNW,340,0.0,0.0,64,0.00,CLR,FEW,0.00,WeatherDisplay:10.37,2013-01-24 23:55:00,
2013-01-24 19:00:00,12.2,2.3,30.44,NNW,340,0.0,0.0,64,0.00,CLR,FEW,0.00,WeatherDisplay:10.37,2013-01-25 00:00:00,
2013-01-24 19:05:00,11.7,1.8,30.44,NNW,340,0.0,0.0,64,0.00,CLR,FEW,0.00,WeatherDisplay:10.37,2013-01-25 00:05:00,
2013-01-24 19:10:00,11.3,1.5,30.44,NNW,340,0.0,0.0,64,0.00,CLR,FEW,0.00,WeatherDisplay:10.37,2013-01-25 00:10:00,
2013-01-24 19:20:00,9.9,0.8,30.44,NNW,340,0.0,0.0,66,0.00,CLR,FEW,0.00,WeatherDisplay:10.37,2013-01-25 00:20:00,
2013-01-24 19:30:00,9.3,1.5,30.44,NNW,340,0.0,0.0,70,0.00,CLR,FEW,0.00,WeatherDisplay:10.37,2013-01-25 00:30:00,
2013-01-24 19:35:00,8.8,1.3,30.44,NNW,340,0.0,0.0,71,0.00,CLR,FEW,0.00,WeatherDisplay:10.37,2013-01-25 00:35:00,
2013-01-24 19:40:00,8.8,1.3,30.44,NNW,340,0.0,0.0,71,0.00,CLR,FEW,0.00,WeatherDisplay:10.37,2013-01-25 00:40:00,
2013-01-24 19:45:00,8.2,1.4,30.44,NNW,340,0.0,0.0,73,0.00,CLR,FEW,0.00,WeatherDisplay:10.37,2013-01-25 00:45:00,
2013-01-24 19:50:00,7.9,1.3,30.44,NNW,340,0.0,0.0,74,0.00,CLR,FEW,0.00,WeatherDisplay:10.37,2013-01-25 00:50:00,
2013-01-24 20:00:00,7.9,1.6,30.44,NNW,340,0.0,0.0,75,0.00,CLR,FEW,0.00,WeatherDisplay:10.37,2013-01-25 01:00:00,
2013-01-24 20:05:00,7.3,1.1,30.44,NNW,340,0.0,0.0,75,0.00,CLR,FEW,0.00,WeatherDisplay:10.37,2013-01-25 01:05:00,
2013-01-24 20:10:00,7.3,1.1,30.44,NNW,340,0.0,0.0,75,0.00,CLR,FEW,0.00,WeatherDisplay:10.37,2013-01-25 01:10:00,
2013-01-24 20:20:00,7.5,1.5,30.44,NNW,340,0.0,0.0,76,0.00,CLR,FEW,0.00,WeatherDisplay:10.37,2013-01-25 01:20:00,
2013-01-24 20:30:00,7.5,1.8,30.44,NNW,340,0.0,0.0,77,0.00,CLR,FEW,0.00,WeatherDisplay:10.37,2013-01-25 01:30:00,
2013-01-24 20:35:00,7.5,2.1,30.41,NNW,340,0.0,0.0,78,0.00,CLR,FEW,0.00,WeatherDisplay:10.37,2013-01-25 01:35:00,
2013-01-24 20:40:00,7.9,2.4,30.41,NNW,340,0.0,0.0,78,0.00,CLR,FEW,0.00,WeatherDisplay:10.37,2013-01-25 01:40:00,
2013-01-24 20:50:00,7.3,1.9,30.41,NNW,340,0.0,0.0,78,0.00,CLR,FEW,0.00,WeatherDisplay:10.37,2013-01-25 01:50:00,
2013-01-24 21:00:00,7.9,2.4,30.41,NNW,340,0.0,0.0,78,0.00,CLR,FEW,0.00,WeatherDisplay:10.37,2013-01-25 02:00:00,
2013-01-24 21:05:00,7.7,2.5,30.41,NNW,340,0.0,0.0,79,0.00,CLR,FEW,0.00,WeatherDisplay:10.37,2013-01-25 02:05:00,
2013-01-24 21:10:00,7.9,2.7,30.41,NNW,340,0.0,0.0,79,0.00,CLR,FEW,0.00,WeatherDisplay:10.37,2013-01-25 02:10:00,
2013-01-24 21:15:00,7.9,2.7,30.41,NNW,340,0.0,0.0,79,0.00,CLR,FEW,0.00,WeatherDisplay:10.37,2013-01-25 02:15:00,
2013-01-24 21:20:00,7.9,2.7,30.41,NNW,340,0.0,0.0,79,0.00,CLR,FEW,0.00,WeatherDisplay:10.37,2013-01-25 02:20:00,
2013-01-24 21:30:00,7.9,3.0,30.41,NNW,340,0.0,0.0,80,0.00,CLR,FEW,0.00,WeatherDisplay:10.37,2013-01-25 02:30:00,
2013-01-24 21:40:00,7.9,3.0,30.41,NNW,340,0.0,0.0,80,0.00,CLR,FEW,0.00,WeatherDisplay:10.37,2013-01-25 02:40:00,
2013-01-24 21:45:00,7.9,3.0,30.41,NNW,340,0.0,0.0,80,0.00,CLR,FEW,0.00,WeatherDisplay:10.37,2013-01-25 02:45:00,
2013-01-24 21:50:00,8.4,3.5,30.41,NNW,340,0.0,0.0,80,0.00,CLR,FEW,0.00,WeatherDisplay:10.37,2013-01-25 02:50:00,
2013-01-24 22:00:00,8.8,3.9,30.41,NNW,340,0.0,0.0,80,0.00,CLR,FEW,0.00,WeatherDisplay:10.37,2013-01-25 03:00:00,
2013-01-24 22:05:00,8.6,3.7,30.41,NNW,340,0.0,0.0,80,0.00,CLR,FEW,0.00,WeatherDisplay:10.37,2013-01-25 03:05:00,
2013-01-24 22:10:00,9.1,4.2,30.41,NNW,340,0.0,0.0,80,0.00,CLR,FEW,0.00,WeatherDisplay:10.37,2013-01-25 03:10:00,
2013-01-24 22:15:00,9.1,4.2,30.41,NNW,340,0.0,0.0,80,0.00,CLR,FEW,0.00,WeatherDisplay:10.37,2013-01-25 03:15:00,
2013-01-24 22:20:00,9.3,4.4,30.41,NNW,340,0.0,0.0,80,0.00,CLR,FEW,0.00,WeatherDisplay:10.37,2013-01-25 03:20:00,
2013-01-24 22:30:00,9.1,4.2,30.41,NNW,340,0.0,0.0,80,0.00,CLR,FEW,0.00,WeatherDisplay:10.37,2013-01-25 03:30:00,
2013-01-24 22:40:00,9.0,3.8,30.41,NNW,340,0.0,0.0,79,0.00,CLR,FEW,0.00,WeatherDisplay:10.37,2013-01-25 03:40:00,
2013-01-24 22:50:00,9.0,3.8,30.41,NNW,340,0.0,0.0,79,0.00,CLR,FEW,0.00,WeatherDisplay:10.37,2013-01-25 03:50:00,
2013-01-24 22:55:00,8.8,3.6,30.41,NNW,340,0.0,0.0,79,0.00,CLR,FEW,0.00,WeatherDisplay:10.37,2013-01-25 03:55:00,
2013-01-24 23:00:00,9.0,3.8,30.41,NNW,340,0.0,0.0,79,0.00,CLR,FEW,0.00,WeatherDisplay:10.37,2013-01-25 04:00:00,
2013-01-24 23:05:00,9.5,4.3,30.41,NNW,340,0.0,0.0,79,0.00,CLR,FEW,0.00,WeatherDisplay:10.37,2013-01-25 04:05:00,
2013-01-24 23:10:00,9.3,4.1,30.41,NNW,340,0.0,0.0,79,0.00,CLR,FEW,0.00,WeatherDisplay:10.37,2013-01-25 04:10:00,
2013-01-24 23:15:00,9.0,3.8,30.41,NNW,340,0.0,0.0,79,0.00,CLR,FEW,0.00,WeatherDisplay:10.37,2013-01-25 04:15:00,
2013-01-24 23:20:00,9.1,3.9,30.41,NNW,340,0.0,0.0,79,0.00,CLR,FEW,0.00,WeatherDisplay:10.37,2013-01-25 04:20:00,
2013-01-24 23:30:00,9.9,4.9,30.41,NNW,340,0.0,0.0,80,0.00,CLR,FEW,0.00,WeatherDisplay:10.37,2013-01-25 04:30:00,
2013-01-24 23:35:00,10.0,5.1,30.41,NNW,340,0.0,0.0,80,0.00,CLR,FEW,0.00,WeatherDisplay:10.37,2013-01-25 04:35:00,
2013-01-24 23:40:00,9.9,4.9,30.41,NNW,340,0.0,0.0,80,0.00,CLR,FEW,0.00,WeatherDisplay:10.37,2013-01-25 04:40:00,
2013-01-24 23:45:00,9.9,4.6,30.38,NNW,340,0.0,0.0,79,0.00,CLR,FEW,0.00,WeatherDisplay:10.37,2013-01-25 04:45:00,
2013-01-24 23:50:00,9.7,4.5,30.38,NNW,340,0.0,0.0,79,0.00,CLR,FEW,0.00,WeatherDisplay:10.37,2013-01-25 04:50:00,
2013-01-24 23:55:00,10.0,5.1,30.41,NNW,340,0.0,0.0,80,0.00,CLR,FEW,0.00,WeatherDisplay:10.37,2013-01-25 04:55:00,